Time;durP1;ratioP1;P1;durP2;ratioP2;P2;SDS_P1;SDS_P2;PMS_P1;PMS_P2;Temp;Humidity;BMP_temperature;BMP_pressure;BME280_temperature;BME280_humidity;BME280_pressure;Samples;Min_cycle;Max_cycle;Signal;HPM_P1;HPM_P2
2021/01/04 00:00:52;;;;;;;9.65;8.55;;;19.00;51.40;;;;;;5003915;28;20037;-65
2021/01/04 00:03:26;;;;;;;11.57;7.82;;;19.00;51.30;;;;;;4985678;28;20037;-66
2021/01/04 00:05:57;;;;;;;12.20;8.80;;;19.00;51.20;;;;;;5002291;28;20088;-65
2021/01/04 00:09:00;;;;;;;10.75;8.80;;;19.00;51.10;;;;;;5002272;28;20037;-68
2021/01/04 00:11:50;;;;;;;15.13;8.50;;;19.10;51.10;;;;;;4982220;28;20038;-68
2021/01/04 00:14:29;;;;;;;12.13;8.90;;;19.10;51.00;;;;;;4977484;28;20555;-67
2021/01/04 00:17:16;;;;;;;10.15;8.75;;;19.10;51.00;;;;;;5002969;28;20037;-66
2021/01/04 00:19:53;;;;;;;11.95;8.40;;;19.10;50.90;;;;;;4998418;28;20033;-67
2021/01/04 00:22:39;;;;;;;11.13;8.60;;;19.10;50.80;;;;;;5002072;28;20038;-66
2021/01/04 00:25:10;;;;;;;14.13;9.27;;;19.10;50.80;;;;;;4975538;28;20049;-68
2021/01/04 00:28:18;;;;;;;10.95;9.18;;;19.10;50.70;;;;;;5002092;28;20038;-68
2021/01/04 00:30:49;;;;;;;12.82;8.93;;;19.10;50.60;;;;;;4919723;28;20460;-66
2021/01/04 00:33:19;;;;;;;11.27;8.43;;;19.10;50.50;;;;;;4926291;28;20035;-67
2021/01/04 00:35:53;;;;;;;15.88;9.35;;;19.10;50.50;;;;;;4967146;28;20034;-67
2021/01/04 00:38:25;;;;;;;12.23;9.85;;;19.10;50.40;;;;;;5002997;28;20044;-66
2021/01/04 00:41:06;;;;;;;11.75;9.15;;;19.20;50.40;;;;;;5003259;28;20045;-68
2021/01/04 00:43:39;;;;;;;10.52;9.02;;;19.10;50.20;;;;;;4975113;28;20034;-67
2021/01/04 00:46:05;;;;;;;11.90;9.57;;;19.10;50.20;;;;;;5002674;28;20112;-65
2021/01/04 00:48:36;;;;;;;11.32;9.18;;;19.20;50.30;;;;;;5005720;28;20551;-66
2021/01/04 00:51:23;;;;;;;12.73;9.10;;;19.10;50.20;;;;;;5005421;28;20034;-67
2021/01/04 00:53:49;;;;;;;11.25;8.93;;;19.10;50.10;;;;;;5007248;28;20452;-68
2021/01/04 00:56:21;;;;;;;10.73;9.38;;;19.20;50.10;;;;;;5006755;28;20517;-66
2021/01/04 00:58:50;;;;;;;11.52;9.40;;;19.20;50.00;;;;;;5026470;28;20038;-66
2021/01/04 01:01:23;;;;;;;10.85;9.05;;;19.20;50.00;;;;;;5022025;28;20034;-66
2021/01/04 01:04:08;;;;;;;13.88;10.18;;;19.20;49.90;;;;;;5005666;28;20061;-68
2021/01/04 01:06:48;;;;;;;12.07;9.32;;;19.20;49.90;;;;;;4985192;28;20434;-67
2021/01/04 01:09:14;;;;;;;11.60;9.32;;;19.20;49.80;;;;;;5001844;28;20034;-66
2021/01/04 01:11:51;;;;;;;10.98;9.43;;;19.20;49.80;;;;;;5006347;28;20026;-68
2021/01/04 01:14:24;;;;;;;12.30;9.77;;;19.10;49.70;;;;;;5006859;28;20038;-68
2021/01/04 01:17:07;;;;;;;12.07;9.88;;;19.10;49.60;;;;;;4989771;28;20029;-67
2021/01/04 01:19:44;;;;;;;11.18;8.98;;;19.20;50.20;;;;;;5006618;28;20038;-66
2021/01/04 01:22:12;;;;;;;10.88;9.43;;;19.20;49.60;;;;;;5003958;28;20505;-69
2021/01/04 01:24:38;;;;;;;11.95;9.13;;;19.10;49.60;;;;;;4986247;28;20413;-67
2021/01/04 01:27:34;;;;;;;11.75;9.73;;;19.10;49.50;;;;;;5018480;28;20040;-66
2021/01/04 01:30:29;;;;;;;19.35;9.63;;;19.10;49.50;;;;;;4989598;28;20493;-64
2021/01/04 01:33:16;;;;;;;11.68;9.75;;;19.10;49.40;;;;;;4963392;28;20042;-67
2021/01/04 01:36:01;;;;;;;11.82;9.50;;;19.10;49.40;;;;;;5000463;28;20038;-66
2021/01/04 01:38:47;;;;;;;12.83;10.03;;;19.10;49.40;;;;;;5006929;28;20026;-68
2021/01/04 01:41:31;;;;;;;11.68;9.63;;;19.10;49.40;;;;;;5004405;28;20586;-67
2021/01/04 01:44:19;;;;;;;11.85;9.50;;;19.10;49.40;;;;;;5006619;28;20030;-67
2021/01/04 01:46:51;;;;;;;10.18;8.70;;;19.10;49.30;;;;;;4988447;28;20495;-67
2021/01/04 01:49:42;;;;;;;11.63;10.05;;;19.10;49.30;;;;;;5003907;28;20045;-68
2021/01/04 01:52:25;;;;;;;10.90;9.68;;;19.10;49.40;;;;;;5003941;28;20042;-68
2021/01/04 01:55:06;;;;;;;10.70;9.30;;;19.10;49.30;;;;;;5004668;28;20038;-66
2021/01/04 01:57:53;;;;;;;10.50;9.20;;;19.10;49.20;;;;;;4983095;28;20045;-67
2021/01/04 02:00:28;;;;;;;11.25;10.02;;;19.10;49.30;;;;;;5006290;28;20821;-66
2021/01/04 02:03:06;;;;;;;10.73;9.63;;;19.00;49.20;;;;;;5000691;28;20034;-68
2021/01/04 02:05:44;;;;;;;12.00;9.35;;;19.00;49.30;;;;;;5005013;28;20128;-66
2021/01/04 02:08:11;;;;;;;12.00;9.35;;;19.10;49.30;;;;;;5005641;28;20045;-65
2021/01/04 02:10:40;;;;;;;10.02;8.93;;;19.10;49.30;;;;;;4985478;28;20049;-64
2021/01/04 02:13:25;;;;;;;11.02;9.55;;;19.00;49.20;;;;;;4984286;28;20042;-66
2021/01/04 02:15:56;;;;;;;9.85;8.75;;;19.00;49.20;;;;;;5003259;28;20124;-67
2021/01/04 02:18:45;;;;;;;9.38;8.35;;;19.00;49.20;;;;;;5005144;28;20565;-66
2021/01/04 02:21:48;;;;;;;11.75;8.82;;;19.00;49.20;;;;;;4985783;28;20034;-67
2021/01/04 02:24:14;;;;;;;9.80;8.32;;;19.00;49.20;;;;;;5004974;28;20461;-68
2021/01/04 02:26:45;;;;;;;11.65;8.50;;;19.00;49.20;;;;;;5005918;28;20413;-67
2021/01/04 02:29:15;;;;;;;9.98;8.98;;;18.90;49.10;;;;;;5002733;28;21741;-67
2021/01/04 02:31:43;;;;;;;9.98;8.45;;;18.90;49.10;;;;;;5004348;28;20037;-67
2021/01/04 02:34:11;;;;;;;10.15;8.45;;;18.90;49.10;;;;;;5003543;28;20026;-66
2021/01/04 02:36:41;;;;;;;12.48;9.05;;;18.90;49.20;;;;;;5003532;28;20413;-67
2021/01/04 02:39:09;;;;;;;10.00;7.97;;;18.80;49.10;;;;;;4987445;28;20256;-67
2021/01/04 02:41:40;;;;;;;10.02;8.07;;;18.90;49.20;;;;;;5003201;28;20509;-66
2021/01/04 02:44:05;;;;;;;11.38;8.68;;;18.90;49.10;;;;;;4987200;28;20601;-67
2021/01/04 02:46:31;;;;;;;10.15;8.63;;;18.80;49.10;;;;;;4998600;28;20065;-67
2021/01/04 02:49:10;;;;;;;10.63;8.50;;;18.80;49.00;;;;;;5003834;28;20547;-66
2021/01/04 02:51:37;;;;;;;11.52;8.57;;;18.70;49.00;;;;;;4999199;28;20061;-67
2021/01/04 02:54:19;;;;;;;11.00;9.05;;;18.70;49.00;;;;;;5002560;28;20038;-67
2021/01/04 02:57:07;;;;;;;9.90;8.90;;;18.70;49.00;;;;;;5002250;28;20500;-66
2021/01/04 02:59:55;;;;;;;9.90;8.45;;;18.70;49.00;;;;;;5002732;28;20037;-67
2021/01/04 03:02:40;;;;;;;9.23;7.95;;;18.60;49.20;;;;;;5002160;28;20397;-66
2021/01/04 03:05:07;;;;;;;10.25;8.57;;;18.60;49.00;;;;;;5003731;28;20038;-65
2021/01/04 03:07:33;;;;;;;10.88;8.52;;;18.60;49.10;;;;;;4986012;28;20185;-67
2021/01/04 03:09:59;;;;;;;10.20;8.23;;;18.60;49.00;;;;;;5003260;28;20129;-67
2021/01/04 03:12:32;;;;;;;9.75;7.63;;;18.70;49.20;;;;;;5002670;28;20041;-67
2021/01/04 03:14:57;;;;;;;9.00;7.70;;;18.70;49.10;;;;;;5003164;28;20040;-67
2021/01/04 03:17:26;;;;;;;10.27;9.13;;;18.70;49.00;;;;;;5005431;28;20112;-66
2021/01/04 03:19:53;;;;;;;9.55;8.25;;;18.70;49.00;;;;;;5005080;28;20034;-67
2021/01/04 03:22:18;;;;;;;9.43;7.85;;;18.70;48.90;;;;;;5003079;28;20058;-65
2021/01/04 03:24:48;;;;;;;9.65;8.20;;;18.80;49.00;;;;;;5004141;28;20064;-64
2021/01/04 03:27:15;;;;;;;8.93;7.55;;;18.70;49.10;;;;;;5004652;28;20030;-67
2021/01/04 03:29:41;;;;;;;10.20;8.38;;;18.70;49.10;;;;;;5003837;28;20082;-65
2021/01/04 03:32:06;;;;;;;9.27;7.68;;;18.70;49.10;;;;;;5001788;28;20054;-64
2021/01/04 03:34:32;;;;;;;7.97;7.18;;;18.80;49.20;;;;;;5003143;28;20040;-66
2021/01/04 03:36:58;;;;;;;11.20;8.57;;;18.70;49.10;;;;;;5002870;28;20415;-67
2021/01/04 03:39:28;;;;;;;9.52;7.93;;;18.80;49.20;;;;;;5002539;28;20053;-67
2021/01/04 03:41:57;;;;;;;8.55;7.47;;;18.80;49.20;;;;;;4987203;28;20053;-64
2021/01/04 03:44:24;;;;;;;8.70;7.75;;;18.80;49.20;;;;;;4996686;28;20164;-67
2021/01/04 03:46:49;;;;;;;8.38;6.57;;;18.90;49.30;;;;;;5002507;28;20053;-69
2021/01/04 03:49:15;;;;;;;7.93;7.13;;;18.80;49.10;;;;;;5004327;28;20034;-67
2021/01/04 03:51:40;;;;;;;8.48;6.65;;;18.90;49.10;;;;;;5002444;28;20038;-66
2021/01/04 03:54:06;;;;;;;8.68;7.22;;;18.90;49.20;;;;;;5002166;28;20559;-66
2021/01/04 03:56:31;;;;;;;8.23;6.30;;;19.00;49.20;;;;;;5002794;28;20033;-65
2021/01/04 03:58:56;;;;;;;9.40;6.85;;;19.00;49.10;;;;;;4982674;28;20076;-65
2021/01/04 04:01:22;;;;;;;7.75;6.68;;;19.00;49.10;;;;;;5002002;28;20116;-66
2021/01/04 04:03:48;;;;;;;7.88;6.47;;;19.10;49.10;;;;;;5002594;28;20501;-67
2021/01/04 04:06:13;;;;;;;8.10;6.50;;;19.10;49.10;;;;;;5002562;28;20045;-67
2021/01/04 04:08:40;;;;;;;7.40;6.53;;;19.10;49.00;;;;;;5003648;28;20041;-68
2021/01/04 04:11:05;;;;;;;6.43;5.82;;;19.10;48.90;;;;;;5003252;28;20038;-67
2021/01/04 04:13:31;;;;;;;7.97;6.78;;;19.20;49.00;;;;;;5003259;28;20037;-67
2021/01/04 04:15:56;;;;;;;10.85;7.78;;;19.20;48.90;;;;;;5002659;28;20034;-67
2021/01/04 04:18:22;;;;;;;10.75;6.10;;;19.20;48.90;;;;;;5003943;28;20634;-66
2021/01/04 04:20:49;;;;;;;6.90;6.20;;;19.20;48.90;;;;;;5003751;28;20072;-67
2021/01/04 04:23:14;;;;;;;8.02;6.22;;;19.20;48.90;;;;;;5002425;28;20045;-67
2021/01/04 04:25:40;;;;;;;7.47;6.60;;;19.20;48.90;;;;;;5003846;28;20034;-67
2021/01/04 04:28:05;;;;;;;7.25;6.15;;;19.20;48.80;;;;;;5003140;28;20068;-67
2021/01/04 04:30:31;;;;;;;8.02;6.32;;;19.20;48.80;;;;;;4976095;28;20035;-67
2021/01/04 04:32:57;;;;;;;8.43;6.18;;;19.20;48.90;;;;;;4998568;28;20042;-65
2021/01/04 04:35:23;;;;;;;7.20;6.20;;;19.20;48.80;;;;;;5001407;28;20157;-67
2021/01/04 04:37:48;;;;;;;8.70;6.35;;;19.20;48.80;;;;;;5001829;28;20679;-67
2021/01/04 04:40:26;;;;;;;6.85;6.15;;;19.20;48.80;;;;;;5001564;28;20137;-67
2021/01/04 04:42:54;;;;;;;7.07;6.38;;;19.20;48.70;;;;;;5003018;28;20698;-65
2021/01/04 04:45:20;;;;;;;7.47;6.15;;;19.20;48.80;;;;;;5006048;28;20115;-66
2021/01/04 04:48:26;;;;;;;6.45;5.85;;;19.10;48.70;;;;;;4989843;28;20038;-66
2021/01/04 04:51:10;;;;;;;8.45;6.40;;;19.20;48.70;;;;;;5000672;28;20030;-67
2021/01/04 04:54:04;;;;;;;6.50;5.80;;;19.10;48.50;;;;;;5013940;28;20052;-67
2021/01/04 04:56:34;;;;;;;7.50;5.85;;;19.10;48.60;;;;;;4995514;28;20030;-67
2021/01/04 04:59:27;;;;;;;7.65;5.93;;;19.10;48.50;;;;;;5005662;28;20061;-67
2021/01/04 05:01:56;;;;;;;7.18;5.95;;;19.10;48.50;;;;;;4989060;28;20588;-66
2021/01/04 05:04:48;;;;;;;7.03;5.95;;;19.10;48.50;;;;;;5006152;28;20022;-65
2021/01/04 05:07:36;;;;;;;7.97;6.28;;;19.10;48.50;;;;;;5021576;28;20550;-66
2021/01/04 05:10:04;;;;;;;5.82;5.22;;;19.10;48.50;;;;;;5021473;28;20700;-65
2021/01/04 05:12:59;;;;;;;7.18;5.82;;;19.10;48.50;;;;;;5005217;28;20037;-67
2021/01/04 05:15:43;;;;;;;7.03;6.07;;;19.10;48.40;;;;;;4993353;28;20115;-67
2021/01/04 05:18:18;;;;;;;6.07;5.50;;;19.00;48.30;;;;;;5004221;28;20040;-68
2021/01/04 05:21:02;;;;;;;6.70;5.53;;;19.00;48.40;;;;;;5004579;28;20045;-67
2021/01/04 05:23:46;;;;;;;7.28;5.82;;;19.00;48.40;;;;;;5020539;28;20343;-66
2021/01/04 05:26:39;;;;;;;6.47;5.43;;;19.00;48.40;;;;;;5021271;28;20034;-66
2021/01/04 05:29:27;;;;;;;5.80;5.15;;;19.00;48.40;;;;;;5006596;28;20038;-68
2021/01/04 05:32:16;;;;;;;7.07;6.10;;;19.00;48.40;;;;;;5005232;28;20034;-66
2021/01/04 05:34:49;;;;;;;6.90;5.43;;;19.00;48.40;;;;;;5005293;28;20730;-65
2021/01/04 05:37:25;;;;;;;6.13;5.32;;;18.90;49.00;;;;;;5006070;28;20036;-64
2021/01/04 05:40:13;;;;;;;6.05;4.97;;;18.90;48.30;;;;;;5005533;28;20037;-66
2021/01/04 05:43:16;;;;;;;7.07;5.13;;;18.90;48.40;;;;;;5006036;28;20104;-66
2021/01/04 05:45:55;;;;;;;7.07;5.47;;;18.90;48.30;;;;;;5005916;28;20030;-66
2021/01/04 05:48:21;;;;;;;7.07;5.47;;;18.90;49.00;;;;;;5003090;28;20048;-67
2021/01/04 05:50:57;;;;;;;7.10;6.05;;;18.90;48.40;;;;;;5006144;28;20026;-63
2021/01/04 05:53:23;;;;;;;8.45;5.70;;;18.90;48.40;;;;;;5004339;28;20053;-65
2021/01/04 05:55:55;;;;;;;6.15;5.28;;;18.90;48.50;;;;;;5003704;28;20034;-65
2021/01/04 05:58:25;;;;;;;5.95;5.35;;;18.90;48.50;;;;;;5005959;28;20038;-63
2021/01/04 06:00:50;;;;;;;6.05;5.30;;;18.90;48.60;;;;;;5005549;28;20176;-63
2021/01/04 06:03:18;;;;;;;7.70;5.10;;;18.90;48.60;;;;;;5005936;28;20038;-64
2021/01/04 06:05:44;;;;;;;8.13;5.72;;;18.90;48.60;;;;;;5004946;28;20033;-63
2021/01/04 06:08:39;;;;;;;8.25;5.47;;;18.90;48.60;;;;;;4971579;28;20042;-64
2021/01/04 06:11:09;;;;;;;6.50;5.57;;;18.90;48.60;;;;;;4994782;28;20314;-65
2021/01/04 06:13:44;;;;;;;6.53;5.63;;;18.90;48.60;;;;;;4998614;28;20096;-65
2021/01/04 06:16:17;;;;;;;5.85;4.88;;;18.90;48.60;;;;;;5005541;28;20044;-65
2021/01/04 06:18:45;;;;;;;8.27;5.68;;;18.90;48.60;;;;;;5021219;28;20084;-66
2021/01/04 06:21:38;;;;;;;7.18;5.18;;;18.90;48.60;;;;;;5004182;28;20034;-65
2021/01/04 06:24:04;;;;;;;9.27;6.15;;;18.90;48.60;;;;;;5004961;28;20120;-67
2021/01/04 06:26:30;;;;;;;8.32;5.82;;;18.90;48.60;;;;;;5003712;28;20111;-66
2021/01/04 06:29:00;;;;;;;9.80;5.70;;;18.90;48.70;;;;;;5005548;28;20048;-66
2021/01/04 06:31:40;;;;;;;8.23;6.20;;;18.90;48.70;;;;;;5005304;28;20030;-65
2021/01/04 06:34:17;;;;;;;8.20;5.90;;;18.80;48.80;;;;;;4971407;28;20037;-65
2021/01/04 06:36:42;;;;;;;11.00;5.78;;;18.90;48.90;;;;;;5002931;28;20030;-65
2021/01/04 06:39:17;;;;;;;7.38;5.35;;;18.90;49.00;;;;;;5003480;28;20037;-67
2021/01/04 06:41:43;;;;;;;7.68;5.50;;;18.90;49.00;;;;;;5003688;28;20234;-65
2021/01/04 06:44:13;;;;;;;8.63;5.57;;;18.90;49.00;;;;;;5003820;28;20041;-65
2021/01/04 06:47:06;;;;;;;7.57;5.50;;;18.90;49.00;;;;;;5003932;28;20362;-66
2021/01/04 06:49:37;;;;;;;9.48;5.63;;;18.90;49.00;;;;;;5003519;28;20109;-65
2021/01/04 06:52:12;;;;;;;7.40;5.63;;;18.90;49.00;;;;;;5002969;28;20615;-66
2021/01/04 06:54:55;;;;;;;7.68;6.38;;;18.90;49.00;;;;;;5003930;28;20022;-65
2021/01/04 06:57:52;;;;;;;8.02;6.13;;;18.80;49.00;;;;;;5005635;28;20508;-66
2021/01/04 07:00:32;;;;;;;10.32;5.97;;;18.80;49.00;;;;;;4986696;28;20354;-67
2021/01/04 07:03:23;;;;;;;9.07;5.90;;;18.80;49.00;;;;;;5004625;28;20026;-66
2021/01/04 07:06:17;;;;;;;8.07;5.35;;;18.80;49.00;;;;;;5003518;28;20030;-65
2021/01/04 07:08:56;;;;;;;7.82;6.45;;;18.80;49.00;;;;;;5004630;28;20499;-66
2021/01/04 07:11:45;;;;;;;6.90;5.55;;;18.80;49.00;;;;;;5003176;28;20038;-66
2021/01/04 07:14:52;;;;;;;7.28;5.22;;;18.80;49.00;;;;;;5002644;28;20425;-66
2021/01/04 07:17:36;;;;;;;8.38;5.45;;;18.80;49.10;;;;;;5005732;28;20254;-65
2021/01/04 07:20:13;;;;;;;9.48;5.45;;;18.80;49.10;;;;;;5003199;28;20038;-65
2021/01/04 07:23:05;;;;;;;10.30;5.68;;;18.80;49.20;;;;;;5004185;28;20041;-64
2021/01/04 07:25:59;;;;;;;6.85;6.20;;;18.70;49.10;;;;;;5004119;28;20022;-66
2021/01/04 07:28:25;;;;;;;7.63;5.70;;;18.80;49.20;;;;;;5003625;28;20058;-67
2021/01/04 07:30:57;;;;;;;6.63;5.93;;;18.70;49.20;;;;;;5003955;28;20493;-67
2021/01/04 07:33:33;;;;;;;8.93;5.97;;;18.80;49.20;;;;;;5005224;28;20041;-64
2021/01/04 07:36:20;;;;;;;8.57;6.38;;;18.70;49.20;;;;;;5004016;28;20040;-68
2021/01/04 07:38:54;;;;;;;8.27;5.70;;;18.80;49.30;;;;;;5003834;28;20149;-67
2021/01/04 07:41:33;;;;;;;9.07;6.18;;;18.80;49.60;;;;;;5009179;28;20030;-66
2021/01/04 07:44:29;;;;;;;15.43;9.85;;;18.80;50.10;;;;;;5003342;28;20026;-68
2021/01/04 07:47:00;;;;;;;28.52;19.02;;;18.80;50.70;;;;;;5001991;28;20412;-66
2021/01/04 07:49:53;;;;;;;40.90;27.45;;;18.80;51.30;;;;;;5004438;28;20034;-65
2021/01/04 07:52:57;;;;;;;40.92;27.30;;;18.90;52.50;;;;;;5001739;28;20056;-67
2021/01/04 07:55:57;;;;;;;41.15;28.80;;;18.90;52.50;;;;;;5000925;28;20041;-65
2021/01/04 07:59:08;;;;;;;46.10;28.38;;;18.90;52.70;;;;;;5001718;28;20117;-66
2021/01/04 08:01:47;;;;;;;37.15;26.27;;;18.90;52.90;;;;;;4968841;28;20037;-66
2021/01/04 08:04:31;;;;;;;36.28;23.48;;;19.00;52.80;;;;;;4982433;28;20150;-65
2021/01/04 08:07:00;;;;;;;33.10;22.92;;;19.00;52.50;;;;;;4983962;28;20037;-66
2021/01/04 08:09:43;;;;;;;36.28;22.35;;;19.00;52.20;;;;;;4984182;28;20035;-66
2021/01/04 08:12:43;;;;;;;29.38;19.42;;;19.00;52.00;;;;;;4982355;28;20489;-65
2021/01/04 08:15:53;;;;;;;29.77;18.73;;;19.00;51.50;;;;;;5018945;28;20057;-65
2021/01/04 08:18:19;;;;;;;32.78;19.55;;;19.00;51.30;;;;;;4994389;28;20338;-65
2021/01/04 08:21:09;;;;;;;33.67;19.10;;;19.00;51.10;;;;;;5002392;28;20034;-65
2021/01/04 08:23:43;;;;;;;31.92;17.33;;;19.00;50.90;;;;;;4986320;28;20119;-65
2021/01/04 08:26:20;;;;;;;25.30;16.98;;;19.00;50.70;;;;;;5004183;28;20112;-64
2021/01/04 08:29:09;;;;;;;27.55;15.52;;;19.00;50.60;;;;;;5001584;28;20375;-65
2021/01/04 08:31:37;;;;;;;23.40;15.48;;;19.00;50.40;;;;;;5002190;28;20312;-66
2021/01/04 08:34:06;;;;;;;21.52;14.65;;;19.00;50.30;;;;;;5003420;28;20068;-64
2021/01/04 08:36:42;;;;;;;22.60;15.75;;;19.00;50.30;;;;;;5002092;28;20497;-65
2021/01/04 08:39:11;;;;;;;21.83;14.48;;;19.00;50.20;;;;;;4997571;28;20030;-64
2021/01/04 08:41:37;;;;;;;28.15;13.50;;;19.00;50.10;;;;;;4975992;28;20023;-63
2021/01/04 08:44:19;;;;;;;25.08;14.70;;;19.00;50.10;;;;;;4963341;28;20042;-61
2021/01/04 08:46:45;;;;;;;23.90;14.40;;;19.00;50.10;;;;;;4983864;28;20023;-63
2021/01/04 08:49:13;;;;;;;20.60;12.93;;;19.00;50.10;;;;;;4967123;28;20085;-66
2021/01/04 08:51:41;;;;;;;18.08;13.00;;;19.00;50.10;;;;;;4973912;28;20040;-63
2021/01/04 08:54:10;;;;;;;25.88;13.98;;;19.00;50.00;;;;;;4982042;28;20034;-64
2021/01/04 08:56:39;;;;;;;20.00;12.30;;;19.00;50.00;;;;;;4984071;28;20034;-63
2021/01/04 08:59:11;;;;;;;22.20;13.05;;;19.00;50.00;;;;;;4982714;28;20586;-65
2021/01/04 09:01:52;;;;;;;16.85;12.35;;;19.00;49.90;;;;;;4982581;28;20027;-65
2021/01/04 09:04:37;;;;;;;18.67;12.80;;;19.00;49.90;;;;;;4984279;28;20077;-64
2021/01/04 09:07:08;;;;;;;19.17;12.40;;;19.00;49.90;;;;;;4983459;28;20034;-65
2021/01/04 09:09:53;;;;;;;17.10;11.35;;;19.00;49.90;;;;;;4991549;28;20026;-63
2021/01/04 09:12:24;;;;;;;18.52;12.52;;;18.90;49.90;;;;;;4995996;28;20371;-65
2021/01/04 09:14:55;;;;;;;18.45;11.48;;;18.90;49.90;;;;;;4983351;28;20033;-66
2021/01/04 09:17:37;;;;;;;20.60;12.18;;;19.00;49.90;;;;;;4982481;28;20031;-62
2021/01/04 09:20:14;;;;;;;18.50;11.57;;;18.90;49.80;;;;;;4982518;28;20424;-63
2021/01/04 09:22:40;;;;;;;17.90;11.02;;;18.90;49.80;;;;;;4983260;28;20073;-67
2021/01/04 09:25:18;;;;;;;14.88;10.82;;;19.00;49.90;;;;;;4982490;28;20552;-66
2021/01/04 09:27:43;;;;;;;18.80;11.55;;;18.90;49.80;;;;;;4965096;28;20030;-63
2021/01/04 09:30:09;;;;;;;15.50;11.02;;;18.90;49.80;;;;;;4963709;28;20049;-63
2021/01/04 09:32:40;;;;;;;18.08;10.50;;;19.00;49.80;;;;;;4966363;28;20085;-63
2021/01/04 09:35:08;;;;;;;15.15;10.70;;;19.00;49.80;;;;;;4968222;28;20658;-64
2021/01/04 09:37:34;;;;;;;19.00;10.55;;;19.00;49.80;;;;;;4971207;28;20034;-65
2021/01/04 09:40:05;;;;;;;15.75;10.57;;;19.00;49.80;;;;;;4969619;28;20031;-64
2021/01/04 09:42:30;;;;;;;17.55;11.18;;;19.00;49.70;;;;;;4985900;28;20061;-66
2021/01/04 09:45:07;;;;;;;16.33;10.88;;;19.00;49.70;;;;;;4987096;28;20030;-65
2021/01/04 09:47:42;;;;;;;16.05;10.38;;;19.00;49.70;;;;;;4985673;28;20117;-66
2021/01/04 09:50:18;;;;;;;15.45;9.32;;;18.90;49.60;;;;;;4986526;28;21520;-64
2021/01/04 09:53:18;;;;;;;15.75;9.80;;;18.90;49.60;;;;;;4969435;28;21017;-64
2021/01/04 09:55:44;;;;;;;13.85;9.60;;;18.90;49.60;;;;;;5004284;28;20037;-62
2021/01/04 09:58:10;;;;;;;15.15;9.32;;;18.90;49.60;;;;;;5004615;28;20480;-63
2021/01/04 10:00:37;;;;;;;15.35;10.02;;;18.90;49.50;;;;;;5004678;28;20034;-65
2021/01/04 10:03:12;;;;;;;13.65;9.45;;;18.90;49.60;;;;;;5004488;28;20534;-66
2021/01/04 10:05:42;;;;;;;14.00;9.85;;;18.90;49.60;;;;;;5006243;28;20061;-64
2021/01/04 10:08:13;;;;;;;11.95;9.52;;;18.90;49.60;;;;;;5004464;28;20050;-63
2021/01/04 10:10:41;;;;;;;14.35;9.30;;;18.90;49.60;;;;;;4988036;28;20037;-66
2021/01/04 10:13:12;;;;;;;12.55;9.50;;;18.90;49.60;;;;;;5004458;28;20030;-65
2021/01/04 10:15:37;;;;;;;14.68;9.18;;;18.90;49.60;;;;;;5004662;28;20041;-65
2021/01/04 10:18:12;;;;;;;12.65;9.48;;;18.90;49.70;;;;;;4988067;28;20033;-62
2021/01/04 10:20:44;;;;;;;13.45;10.15;;;18.90;49.80;;;;;;5004911;28;20045;-66
2021/01/04 10:23:10;;;;;;;13.15;9.13;;;18.90;49.80;;;;;;4988579;28;20033;-64
2021/01/04 10:25:43;;;;;;;12.88;9.40;;;18.90;49.80;;;;;;5003594;28;20512;-65
2021/01/04 10:28:09;;;;;;;13.02;9.05;;;18.90;49.80;;;;;;5004853;28;20528;-64
2021/01/04 10:30:34;;;;;;;13.50;9.02;;;18.90;49.80;;;;;;5004873;28;20034;-65
2021/01/04 10:33:20;;;;;;;13.48;8.85;;;18.90;49.90;;;;;;5004256;28;20030;-65
2021/01/04 10:35:45;;;;;;;11.13;8.25;;;18.90;49.90;;;;;;5005557;28;20037;-66
2021/01/04 10:38:16;;;;;;;11.52;8.50;;;18.90;49.90;;;;;;5005227;28;20390;-65
2021/01/04 10:40:46;;;;;;;10.18;8.45;;;18.90;49.90;;;;;;5003434;28;20525;-65
2021/01/04 10:43:15;;;;;;;12.10;9.07;;;18.90;49.90;;;;;;5002565;28;20064;-65
2021/01/04 10:45:41;;;;;;;10.63;8.65;;;19.00;50.00;;;;;;5003819;28;20022;-66
2021/01/04 10:48:13;;;;;;;10.98;8.65;;;19.00;49.90;;;;;;5003490;28;20029;-63
2021/01/04 10:50:39;;;;;;;12.95;9.13;;;19.00;49.90;;;;;;5005432;28;20038;-65
2021/01/04 10:53:09;;;;;;;11.70;8.35;;;19.00;49.90;;;;;;5003212;28;20088;-66
2021/01/04 10:55:37;;;;;;;12.65;8.85;;;19.00;49.80;;;;;;5005275;28;20572;-63
2021/01/04 10:58:14;;;;;;;10.93;7.63;;;19.00;49.80;;;;;;5004507;28;20038;-64
2021/01/04 11:00:47;;;;;;;9.93;8.13;;;19.00;49.80;;;;;;5003562;28;20036;-62
2021/01/04 11:03:14;;;;;;;12.07;8.55;;;19.00;49.80;;;;;;5003702;28;20048;-66
2021/01/04 11:05:41;;;;;;;10.73;8.48;;;19.00;49.80;;;;;;5003770;28;20218;-64
2021/01/04 11:08:23;;;;;;;12.90;8.48;;;19.10;49.80;;;;;;5003489;28;20038;-62
2021/01/04 11:11:18;;;;;;;12.07;8.52;;;19.00;49.70;;;;;;5003619;28;20033;-65
2021/01/04 11:13:44;;;;;;;12.38;8.27;;;19.10;49.70;;;;;;5003433;28;20046;-64
2021/01/04 11:16:14;;;;;;;9.75;8.63;;;19.10;49.70;;;;;;5003460;28;20037;-65
2021/01/04 11:18:54;;;;;;;9.75;8.68;;;19.00;49.60;;;;;;5005032;28;20030;-61
2021/01/04 11:21:31;;;;;;;8.75;7.50;;;19.10;49.60;;;;;;4985435;28;20512;-63
2021/01/04 11:23:57;;;;;;;13.50;7.95;;;19.10;49.60;;;;;;5002725;28;20404;-63
2021/01/04 11:26:22;;;;;;;10.70;8.27;;;19.10;49.50;;;;;;5005713;28;20032;-63
2021/01/04 11:28:48;;;;;;;10.25;8.57;;;19.10;49.50;;;;;;5004759;28;20022;-65
2021/01/04 11:31:13;;;;;;;10.20;8.07;;;19.10;49.50;;;;;;5005808;28;20041;-65
2021/01/04 11:33:39;;;;;;;10.27;8.15;;;19.10;49.50;;;;;;5004320;28;20026;-63
2021/01/04 11:36:05;;;;;;;10.20;7.82;;;19.10;49.50;;;;;;5003879;28;20026;-64
2021/01/04 11:38:30;;;;;;;9.85;7.90;;;19.10;49.40;;;;;;5004434;28;20105;-64
2021/01/04 11:40:56;;;;;;;11.10;8.05;;;19.10;49.40;;;;;;5004374;28;20140;-64
2021/01/04 11:43:21;;;;;;;10.30;8.32;;;19.10;49.40;;;;;;5004346;28;20048;-61
2021/01/04 11:45:47;;;;;;;10.80;8.68;;;19.10;49.40;;;;;;5003825;28;20108;-63
2021/01/04 11:48:12;;;;;;;10.82;8.23;;;19.10;49.30;;;;;;5004772;28;20034;-64
2021/01/04 11:50:38;;;;;;;10.85;8.20;;;19.10;49.30;;;;;;5004607;28;20037;-65
2021/01/04 11:53:03;;;;;;;9.65;8.30;;;19.10;49.30;;;;;;5003410;28;20117;-62
2021/01/04 11:55:29;;;;;;;8.98;7.45;;;19.10;49.30;;;;;;5004207;28;20079;-66
2021/01/04 11:57:54;;;;;;;9.55;7.70;;;19.10;49.20;;;;;;5004670;28;20612;-66
2021/01/04 12:00:20;;;;;;;10.18;7.50;;;19.00;49.20;;;;;;5003753;28;20065;-62
2021/01/04 12:02:46;;;;;;;10.43;8.45;;;19.00;49.10;;;;;;5003879;28;20033;-65
2021/01/04 12:05:12;;;;;;;8.40;7.22;;;19.10;49.20;;;;;;5004223;28;20654;-63
2021/01/04 12:07:38;;;;;;;11.02;8.77;;;19.10;49.10;;;;;;5002504;28;20835;-64
2021/01/04 12:10:04;;;;;;;10.90;7.50;;;19.00;49.10;;;;;;5002551;28;20117;-64
2021/01/04 12:12:29;;;;;;;9.50;7.40;;;19.00;49.10;;;;;;5003407;28;20025;-66
2021/01/04 12:14:55;;;;;;;9.10;7.47;;;19.00;49.10;;;;;;5004525;28;20038;-65
2021/01/04 12:17:21;;;;;;;10.00;6.88;;;19.00;49.00;;;;;;5002690;28;20030;-66
2021/01/04 12:19:47;;;;;;;9.80;8.00;;;19.00;49.00;;;;;;5002221;28;20425;-64
2021/01/04 12:22:12;;;;;;;8.70;7.30;;;19.00;49.00;;;;;;4985529;28;20037;-65
2021/01/04 12:24:38;;;;;;;8.93;7.13;;;19.00;49.00;;;;;;5003444;28;20029;-61
2021/01/04 12:27:05;;;;;;;9.38;7.93;;;19.00;49.00;;;;;;5002799;28;20448;-64
2021/01/04 12:29:31;;;;;;;9.20;7.95;;;19.00;49.00;;;;;;4985486;28;20033;-65
2021/01/04 12:31:56;;;;;;;8.73;7.63;;;19.00;49.00;;;;;;5002835;28;20034;-62
2021/01/04 12:34:22;;;;;;;10.40;7.80;;;19.00;49.00;;;;;;5002255;28;20610;-62
2021/01/04 12:36:47;;;;;;;8.93;7.45;;;19.00;49.00;;;;;;5002195;28;20026;-66
2021/01/04 12:39:13;;;;;;;8.98;7.18;;;19.00;48.90;;;;;;5003153;28;20073;-65
2021/01/04 12:41:41;;;;;;;9.10;7.45;;;19.00;48.90;;;;;;5000935;28;20575;-66
2021/01/04 12:44:08;;;;;;;10.75;8.18;;;19.00;48.90;;;;;;5001992;28;20041;-64
2021/01/04 12:46:34;;;;;;;8.50;7.30;;;19.00;49.00;;;;;;5002810;28;20037;-66
2021/01/04 12:48:59;;;;;;;10.30;8.30;;;18.90;48.90;;;;;;5004696;28;20030;-61
2021/01/04 12:51:25;;;;;;;9.27;7.53;;;19.00;49.00;;;;;;5003352;28;20112;-64
2021/01/04 12:53:50;;;;;;;9.00;7.75;;;19.00;49.00;;;;;;5002044;28;20026;-66
2021/01/04 12:56:19;;;;;;;8.45;7.55;;;19.00;49.00;;;;;;5002567;28;20699;-66
2021/01/04 12:58:45;;;;;;;8.23;7.43;;;18.90;48.90;;;;;;4986218;28;20033;-64
2021/01/04 13:01:12;;;;;;;8.85;7.70;;;18.90;48.90;;;;;;5002466;28;20088;-65
2021/01/04 13:03:37;;;;;;;9.05;7.78;;;18.90;48.90;;;;;;5003332;28;20672;-64
2021/01/04 13:06:03;;;;;;;7.78;6.88;;;18.90;48.90;;;;;;5008136;28;20100;-62
2021/01/04 13:08:29;;;;;;;9.43;7.60;;;18.90;49.00;;;;;;5005936;28;20037;-63
2021/01/04 13:10:55;;;;;;;9.55;7.72;;;18.90;48.90;;;;;;4989414;28;20058;-64
2021/01/04 13:13:20;;;;;;;8.52;7.20;;;18.90;48.90;;;;;;5005610;28;20060;-65
2021/01/04 13:15:46;;;;;;;8.88;6.90;;;18.90;48.90;;;;;;5007270;28;20485;-63